createdAt,value
2022-08-18T00:01:48.798Z,15.47
2022-08-18T00:04:34.877Z,13.93
2022-08-18T00:07:02.446Z,13.70
2022-08-18T00:09:32.196Z,14.50
2022-08-18T00:12:02.084Z,14.00
2022-08-18T00:14:28.849Z,14.10
2022-08-18T00:16:55.497Z,13.07
2022-08-18T00:19:24.779Z,15.27
2022-08-18T00:22:14.758Z,14.00
2022-08-18T00:24:48.670Z,15.00
2022-08-18T00:27:26.136Z,14.37
2022-08-18T00:29:57.444Z,15.10
2022-08-18T00:32:27.786Z,14.80
2022-08-18T00:34:54.987Z,15.30
2022-08-18T00:37:23.586Z,14.90
2022-08-18T00:39:52.619Z,14.53
2022-08-18T00:42:31.045Z,15.00
2022-08-18T00:45:01.696Z,15.90
2022-08-18T00:47:41.752Z,14.73
2022-08-18T00:50:14.908Z,15.63
2022-08-18T00:52:47.794Z,14.83
2022-08-18T00:55:18.002Z,16.10
2022-08-18T00:57:46.765Z,15.83
2022-08-18T01:00:14.891Z,14.67
2022-08-18T01:02:49.340Z,14.47
2022-08-18T01:05:30.389Z,14.70
2022-08-18T01:07:57.009Z,15.43
2022-08-18T01:10:24.202Z,15.43
2022-08-18T01:12:54.090Z,15.20
2022-08-18T01:15:29.484Z,15.20
2022-08-18T01:18:21.993Z,15.57
2022-08-18T01:21:18.377Z,15.40
2022-08-18T01:23:45.896Z,14.83
2022-08-18T01:26:14.116Z,14.77
2022-08-18T01:28:44.538Z,15.70
2022-08-18T01:31:13.515Z,15.13
2022-08-18T01:33:42.842Z,16.03
2022-08-18T01:36:09.226Z,16.13
2022-08-18T01:38:35.704Z,14.63
2022-08-18T01:41:26.218Z,14.87
2022-08-18T01:43:49.715Z,14.90
2022-08-18T01:46:23.189Z,14.87
2022-08-18T01:48:50.569Z,15.90
2022-08-18T01:51:19.746Z,16.17
2022-08-18T01:53:46.423Z,15.07
2022-08-18T01:56:17.541Z,16.50
2022-08-18T01:58:46.141Z,14.77
2022-08-18T02:01:13.268Z,15.60
2022-08-18T02:03:45.037Z,16.17
2022-08-18T02:06:14.852Z,15.77
2022-08-18T02:08:43.773Z,14.93
2022-08-18T02:11:13.897Z,16.53
2022-08-18T02:13:41.125Z,16.30
2022-08-18T02:16:08.297Z,15.40
2022-08-18T02:18:48.512Z,16.00
2022-08-18T02:21:18.935Z,16.10
2022-08-18T02:23:49.224Z,15.70
2022-08-18T02:26:19.822Z,16.10
2022-08-18T02:28:46.368Z,16.17
2022-08-18T02:31:19.137Z,15.37
2022-08-18T02:33:51.749Z,16.33
2022-08-18T02:36:20.215Z,16.97
2022-08-18T02:38:54.711Z,16.57
2022-08-18T02:41:29.909Z,15.80
2022-08-18T02:43:57.081Z,15.20
2022-08-18T02:46:23.661Z,15.73
2022-08-18T02:48:56.831Z,15.17
2022-08-18T02:51:23.390Z,15.33
2022-08-18T02:53:53.695Z,16.40
2022-08-18T02:56:41.574Z,17.00
2022-08-18T02:59:13.400Z,16.70
2022-08-18T03:01:43.629Z,16.30
2022-08-18T03:04:14.254Z,15.80
2022-08-18T03:06:41.754Z,17.30
2022-08-18T03:09:10.103Z,15.87
2022-08-18T03:11:37.485Z,15.80
2022-08-18T03:14:05.569Z,17.57
2022-08-18T03:16:33.209Z,17.13
2022-08-18T03:19:01.462Z,16.87
2022-08-18T03:21:34.881Z,16.40
2022-08-18T03:24:02.743Z,16.90
2022-08-18T03:26:30.692Z,17.00
2022-08-18T03:29:00.059Z,15.80
2022-08-18T03:31:29.007Z,16.47
2022-08-18T03:33:59.587Z,15.73
2022-08-18T03:36:35.438Z,16.67
2022-08-18T03:39:05.538Z,17.20
2022-08-18T03:41:44.503Z,16.17
2022-08-18T03:44:19.054Z,18.07
2022-08-18T03:46:45.513Z,17.30
2022-08-18T03:49:13.257Z,16.60
2022-08-18T03:51:48.937Z,18.33
2022-08-18T03:54:18.431Z,18.80
2022-08-18T03:56:47.399Z,16.80
2022-08-18T03:59:18.148Z,17.37
2022-08-18T04:01:46.865Z,17.97
2022-08-18T04:04:19.586Z,16.90
2022-08-18T04:06:54.049Z,16.40
2022-08-18T04:09:21.782Z,18.30
2022-08-18T04:11:48.957Z,17.83
2022-08-18T04:14:18.857Z,17.13
2022-08-18T04:16:46.014Z,18.53
2022-08-18T04:19:13.723Z,16.90
2022-08-18T04:21:42.362Z,16.90
2022-08-18T04:24:10.456Z,17.03
2022-08-18T04:26:43.182Z,16.93
2022-08-18T04:29:11.254Z,17.70
2022-08-18T04:31:38.234Z,17.83
2022-08-18T04:34:05.479Z,15.80
2022-08-18T04:36:34.509Z,17.63
2022-08-18T04:39:02.242Z,18.33
2022-08-18T04:41:29.501Z,17.50
2022-08-18T04:44:01.463Z,17.03
2022-08-18T04:46:29.766Z,17.80
2022-08-18T04:48:59.257Z,18.53
2022-08-18T04:52:34.277Z,18.07
2022-08-18T04:54:16.093Z,18.10
2022-08-18T04:56:42.750Z,18.53
2022-08-18T04:59:12.156Z,18.00
2022-08-18T05:01:41.908Z,17.07
2022-08-18T05:04:09.047Z,18.07
2022-08-18T05:06:35.870Z,17.17
2022-08-18T05:09:05.925Z,18.03
2022-08-18T05:11:34.498Z,17.10
2022-08-18T05:14:08.541Z,17.60
2022-08-18T05:16:48.287Z,17.37
2022-08-18T05:19:21.806Z,17.83
2022-08-18T05:21:52.271Z,18.13
2022-08-18T05:24:20.731Z,19.30
2022-08-18T05:26:48.924Z,19.80
2022-08-18T05:29:19.165Z,16.57
2022-08-18T05:31:47.551Z,17.67
2022-08-18T05:34:14.139Z,18.50
2022-08-18T05:36:50.211Z,17.73
2022-08-18T05:39:19.588Z,19.00
2022-08-18T05:41:51.558Z,17.77
2022-08-18T05:44:44.344Z,18.10
2022-08-18T05:47:16.888Z,17.40
2022-08-18T05:49:44.784Z,18.47
2022-08-18T05:52:19.510Z,18.27
2022-08-18T05:55:08.797Z,18.50
2022-08-18T05:57:43.556Z,17.83
2022-08-18T06:00:11.524Z,17.67
2022-08-18T06:02:51.686Z,18.80
2022-08-18T06:05:28.987Z,19.67
2022-08-18T06:08:12.408Z,18.53
2022-08-18T06:10:43.460Z,20.10
2022-08-18T06:13:11.345Z,21.40
2022-08-18T06:15:53.257Z,20.07
2022-08-18T06:18:33.461Z,19.47
2022-08-18T06:21:10.052Z,20.27
2022-08-18T06:23:46.878Z,19.27
2022-08-18T06:26:26.092Z,24.07
2022-08-18T06:29:10.893Z,24.90
2022-08-18T06:32:02.090Z,23.93
2022-08-18T06:35:01.339Z,24.93
2022-08-18T06:37:59.965Z,26.60
2022-08-18T06:40:26.507Z,28.67
2022-08-18T06:42:53.144Z,25.60
2022-08-18T06:45:33.832Z,27.60
2022-08-18T06:48:15.309Z,27.60
2022-08-18T06:50:50.761Z,27.13
2022-08-18T06:53:27.261Z,28.70
2022-08-18T06:55:54.154Z,28.83
2022-08-18T06:58:30.391Z,26.87
2022-08-18T07:01:02.498Z,28.17
2022-08-18T07:03:56.623Z,30.53
2022-08-18T07:06:22.975Z,25.90
2022-08-18T07:08:51.972Z,28.60
2022-08-18T07:11:27.345Z,28.50
2022-08-18T07:14:16.373Z,31.80
2022-08-18T07:17:00.062Z,33.13
2022-08-18T07:19:31.462Z,32.60
2022-08-18T07:22:18.979Z,33.33
2022-08-18T07:24:49.186Z,32.17
2022-08-18T07:27:40.572Z,29.90
2022-08-18T07:30:30.145Z,31.77
2022-08-18T07:33:09.478Z,32.30
2022-08-18T07:35:49.943Z,37.67
2022-08-18T07:38:42.495Z,34.30
2022-08-18T07:41:16.910Z,35.03
2022-08-18T07:43:52.053Z,35.47
2022-08-18T07:46:26.637Z,38.00
2022-08-18T07:48:53.051Z,41.60
2022-08-18T07:51:35.166Z,41.57
2022-08-18T07:54:49.017Z,42.50
2022-08-18T07:57:27.293Z,42.67
2022-08-18T08:00:18.884Z,47.80
2022-08-18T08:03:01.866Z,47.27
2022-08-18T08:05:43.577Z,44.50
2022-08-18T08:08:16.495Z,44.73
2022-08-18T08:11:08.352Z,45.00
2022-08-18T08:13:56.765Z,42.87
2022-08-18T08:16:28.509Z,45.43
2022-08-18T08:19:59.978Z,43.77
2022-08-18T08:22:44.026Z,40.10
2022-08-18T08:25:42.927Z,37.60
2022-08-18T08:28:22.899Z,40.30
2022-08-18T08:34:24.730Z,36.00
2022-08-18T08:36:59.144Z,35.90
2022-08-18T08:39:42.352Z,36.17
2022-08-18T08:42:32.072Z,37.13
2022-08-18T08:45:09.564Z,37.30
2022-08-18T08:48:06.275Z,33.50
2022-08-18T08:50:44.211Z,32.73
2022-08-18T08:53:29.079Z,32.83
2022-08-18T08:56:02.623Z,31.00
2022-08-18T08:58:55.857Z,31.60
2022-08-18T09:01:46.744Z,32.90
2022-08-18T09:04:54.862Z,29.67
2022-08-18T09:08:05.653Z,30.90
2022-08-18T09:11:00.638Z,31.67
2022-08-18T09:13:48.713Z,31.97
2022-08-18T09:16:27.847Z,31.67
2022-08-18T09:19:17.899Z,32.47
2022-08-18T09:22:13.962Z,32.07
2022-08-18T09:24:51.084Z,32.53
2022-08-18T09:28:00.008Z,34.17
2022-08-18T09:30:43.514Z,31.30
2022-08-18T09:33:44.451Z,31.40
2022-08-18T09:36:25.904Z,32.23
2022-08-18T09:39:27.704Z,37.53
2022-08-18T09:42:10.481Z,37.80
2022-08-18T09:44:41.154Z,40.17
2022-08-18T09:47:10.145Z,38.80
2022-08-18T09:50:05.762Z,40.27
2022-08-18T09:52:37.355Z,35.57
2022-08-18T09:55:26.764Z,33.17
2022-08-18T09:58:11.790Z,37.23
2022-08-18T10:00:38.273Z,34.30
2022-08-18T10:03:12.817Z,38.07
2022-08-18T10:05:40.061Z,37.00
2022-08-18T10:08:21.308Z,39.93
2022-08-18T10:11:09.334Z,36.70
2022-08-18T10:13:55.357Z,35.87
2022-08-18T10:16:38.231Z,39.37
2022-08-18T10:20:26.258Z,35.47
2022-08-18T10:22:55.382Z,37.87
2022-08-18T10:25:43.059Z,37.67
2022-08-18T10:28:31.232Z,39.77
2022-08-18T10:31:06.179Z,38.77
2022-08-18T10:34:00.243Z,40.33
2022-08-18T10:36:46.098Z,38.40
2022-08-18T10:39:27.322Z,36.23
2022-08-18T10:42:03.053Z,39.37
2022-08-18T10:44:36.026Z,38.23
2022-08-18T10:47:03.736Z,38.13
2022-08-18T10:49:38.731Z,40.30
2022-08-18T10:52:28.253Z,35.37
2022-08-18T10:55:24.841Z,38.63
2022-08-18T10:58:24.000Z,40.87
2022-08-18T11:01:33.390Z,39.03
2022-08-18T11:04:33.494Z,37.50
2022-08-18T11:07:19.931Z,37.47
2022-08-18T11:09:57.310Z,38.07
2022-08-18T11:13:00.115Z,35.00
2022-08-18T11:15:38.480Z,37.13
2022-08-18T11:18:13.278Z,40.30
2022-08-18T11:20:40.583Z,38.70
2022-08-18T11:23:16.074Z,39.50
2022-08-18T11:25:44.732Z,42.90
2022-08-18T11:28:20.014Z,40.43
2022-08-18T11:30:50.848Z,40.07
2022-08-18T11:33:22.745Z,41.60
2022-08-18T11:35:53.907Z,39.93
2022-08-18T11:38:23.226Z,40.53
2022-08-18T11:43:43.380Z,40.60
2022-08-18T11:46:27.664Z,38.73
2022-08-18T11:48:56.557Z,40.30
2022-08-18T11:51:25.347Z,37.87
2022-08-18T11:56:44.281Z,40.17
2022-08-18T12:02:18.418Z,40.47
2022-08-18T12:04:52.454Z,37.90
2022-08-18T12:07:28.751Z,40.97
2022-08-18T12:10:30.629Z,40.30
2022-08-18T12:13:00.657Z,41.00
2022-08-18T12:15:39.710Z,37.00
2022-08-18T12:18:11.238Z,38.50
2022-08-18T12:20:53.112Z,37.73
2022-08-18T12:23:19.546Z,39.27
2022-08-18T12:25:47.918Z,38.10
2022-08-18T12:28:19.285Z,37.60
2022-08-18T12:30:48.707Z,37.37
2022-08-18T12:33:25.540Z,36.03
2022-08-18T12:36:01.409Z,35.40
2022-08-18T12:38:32.773Z,36.90
2022-08-18T12:41:05.024Z,35.40
2022-08-18T12:43:32.433Z,33.83
2022-08-18T12:46:00.692Z,32.80
2022-08-18T12:48:30.006Z,38.50
2022-08-18T12:50:59.944Z,35.40
2022-08-18T12:53:30.476Z,34.37
2022-08-18T12:56:25.527Z,35.73
2022-08-18T12:58:53.230Z,35.57
2022-08-18T13:01:20.449Z,34.47
2022-08-18T13:04:10.716Z,33.00
2022-08-18T13:06:41.331Z,34.23
2022-08-18T13:09:35.345Z,32.70
2022-08-18T13:12:15.153Z,31.80
2022-08-18T13:14:43.730Z,31.40
2022-08-18T13:17:29.169Z,30.00
2022-08-18T13:20:25.555Z,31.27
2022-08-18T13:22:52.510Z,30.40
2022-08-18T13:25:28.721Z,31.93
2022-08-18T13:28:00.552Z,30.37
2022-08-18T13:30:31.321Z,29.60
2022-08-18T13:33:05.426Z,31.10
2022-08-18T13:35:47.998Z,30.93
2022-08-18T13:38:25.577Z,30.50
2022-08-18T13:40:54.723Z,28.77
2022-08-18T13:43:30.127Z,28.90
2022-08-18T13:45:56.650Z,30.63
2022-08-18T13:48:25.591Z,29.80
2022-08-18T13:50:58.386Z,28.80
2022-08-18T13:53:28.538Z,28.97
2022-08-18T13:55:59.330Z,26.10
2022-08-18T13:58:27.505Z,27.63
2022-08-18T14:01:22.428Z,27.80
2022-08-18T14:03:47.894Z,26.47
2022-08-18T14:06:15.807Z,25.80
2022-08-18T14:08:49.613Z,27.20
2022-08-18T14:11:17.265Z,26.90
2022-08-18T14:13:44.500Z,27.03
2022-08-18T14:16:18.543Z,26.10
2022-08-18T14:19:09.947Z,28.57
2022-08-18T14:22:03.586Z,27.30
2022-08-18T14:24:49.917Z,27.17
2022-08-18T14:27:24.560Z,26.67
2022-08-18T14:29:52.853Z,25.70
2022-08-18T14:32:29.133Z,27.63
2022-08-18T14:35:00.642Z,26.23
2022-08-18T14:37:29.263Z,25.00
2022-08-18T14:39:55.948Z,25.90
2022-08-18T14:42:41.156Z,24.47
2022-08-18T14:45:18.008Z,23.00
2022-08-18T14:47:58.374Z,23.20
2022-08-18T14:50:26.688Z,22.20
2022-08-18T14:52:53.315Z,23.00
2022-08-18T14:55:20.330Z,24.93
2022-08-18T14:57:47.126Z,21.97
2022-08-18T15:00:16.804Z,25.73
2022-08-18T15:02:49.223Z,24.67
2022-08-18T15:05:19.749Z,25.20
2022-08-18T15:07:50.826Z,23.73
2022-08-18T15:10:19.887Z,23.10
2022-08-18T15:12:50.358Z,22.23
2022-08-18T15:15:18.369Z,23.87
2022-08-18T15:17:45.356Z,20.63
2022-08-18T15:20:17.191Z,21.57
2022-08-18T15:23:04.292Z,21.20
2022-08-18T15:25:37.234Z,23.63
2022-08-18T15:28:03.891Z,24.50
2022-08-18T15:30:30.394Z,22.93
2022-08-18T15:32:58.904Z,21.93
2022-08-18T15:35:25.374Z,23.70
2022-08-18T15:37:53.396Z,21.93
2022-08-18T15:40:35.466Z,21.90
2022-08-18T15:43:09.951Z,21.90
2022-08-18T15:45:43.268Z,22.33
2022-08-18T15:48:25.065Z,22.03
2022-08-18T15:50:52.054Z,23.07
2022-08-18T15:53:22.051Z,23.97
2022-08-18T15:55:50.011Z,23.43
2022-08-18T15:58:18.273Z,23.47
2022-08-18T16:00:50.555Z,21.30
2022-08-18T16:03:17.550Z,21.87
2022-08-18T16:05:51.601Z,21.17
2022-08-18T16:08:21.619Z,21.03
2022-08-18T16:10:48.441Z,24.27
2022-08-18T16:13:14.996Z,22.40
2022-08-18T16:15:46.756Z,25.73
2022-08-18T16:18:15.590Z,26.33
2022-08-18T16:20:43.405Z,26.50
2022-08-18T16:23:12.078Z,25.83
2022-08-18T16:25:39.806Z,23.63
2022-08-18T16:28:06.289Z,24.97
2022-08-18T16:30:33.626Z,24.40
2022-08-18T16:33:05.080Z,23.20
2022-08-18T16:35:32.409Z,24.70
2022-08-18T16:38:05.458Z,22.70
2022-08-18T16:40:32.373Z,22.97
2022-08-18T16:43:00.545Z,22.60
2022-08-18T16:45:28.120Z,22.63
2022-08-18T16:47:55.197Z,25.03
2022-08-18T16:50:23.457Z,23.63
2022-08-18T16:52:49.977Z,21.60
2022-08-18T16:55:16.709Z,23.37
2022-08-18T16:58:02.977Z,23.27
2022-08-18T17:00:54.954Z,22.37
2022-08-18T17:03:42.316Z,21.83
2022-08-18T17:06:13.762Z,21.60
2022-08-18T17:08:41.635Z,21.70
2022-08-18T17:11:12.577Z,18.70
2022-08-18T17:13:40.139Z,19.13
2022-08-18T17:16:08.095Z,18.13
2022-08-18T17:18:36.043Z,19.00
2022-08-18T17:21:04.481Z,18.20
2022-08-18T17:23:32.286Z,17.13
2022-08-18T17:25:59.685Z,17.50
2022-08-18T17:28:50.440Z,17.90
2022-08-18T17:31:20.784Z,16.93
2022-08-18T17:33:47.276Z,17.43
2022-08-18T17:36:21.117Z,18.67
2022-08-18T17:39:02.670Z,17.10
2022-08-18T17:41:29.146Z,17.83
2022-08-18T17:44:00.812Z,17.20
2022-08-18T17:46:37.203Z,17.20
2022-08-18T17:49:11.009Z,16.60
2022-08-18T17:51:46.258Z,17.37
2022-08-18T17:54:32.311Z,18.87
2022-08-18T17:57:08.454Z,17.20
2022-08-18T17:59:51.426Z,17.60
2022-08-18T18:02:29.862Z,17.70
2022-08-18T18:05:06.241Z,17.10
2022-08-18T18:07:38.451Z,16.00
2022-08-18T18:10:10.189Z,16.10
2022-08-18T18:12:38.270Z,15.63
2022-08-18T18:15:09.770Z,14.77
2022-08-18T18:17:38.993Z,19.10
2022-08-18T18:20:39.434Z,16.30
2022-08-18T18:23:21.749Z,15.87
2022-08-18T18:25:50.200Z,15.17
2022-08-18T18:28:33.183Z,15.30
2022-08-18T18:31:25.093Z,14.00
2022-08-18T18:34:06.834Z,14.60
2022-08-18T18:36:49.814Z,14.53
2022-08-18T18:39:33.984Z,14.60
2022-08-18T18:42:19.366Z,14.70
2022-08-18T18:45:01.870Z,15.23
2022-08-18T18:48:05.655Z,15.07
2022-08-18T18:50:56.251Z,14.73
2022-08-18T18:53:26.316Z,15.43
2022-08-18T18:56:15.185Z,14.77
2022-08-18T18:58:58.389Z,14.60
2022-08-18T19:01:39.111Z,14.33
2022-08-18T19:04:13.869Z,14.73
2022-08-18T19:06:58.973Z,14.10
2022-08-18T19:09:30.565Z,14.17
2022-08-18T19:12:25.456Z,13.43
2022-08-18T19:15:00.166Z,13.93
2022-08-18T19:17:53.701Z,13.97
2022-08-18T19:20:25.559Z,13.47
2022-08-18T19:22:59.117Z,14.20
2022-08-18T19:25:29.005Z,13.67
2022-08-18T19:28:12.725Z,13.90
2022-08-18T19:30:42.625Z,13.87
2022-08-18T19:33:15.721Z,13.70
2022-08-18T19:36:27.856Z,13.70
2022-08-18T19:39:02.182Z,14.90
2022-08-18T19:41:59.329Z,14.20
2022-08-18T19:44:55.395Z,14.10
2022-08-18T19:47:49.524Z,13.47
2022-08-18T19:50:21.579Z,14.23
2022-08-18T19:52:57.508Z,13.93
2022-08-18T19:55:46.292Z,15.30
2022-08-18T19:59:15.170Z,14.10
2022-08-18T20:01:57.401Z,15.30
2022-08-18T20:04:51.758Z,13.93
2022-08-18T20:07:53.369Z,13.83
2022-08-18T20:10:49.059Z,13.90
2022-08-18T20:13:38.382Z,13.50
2022-08-18T20:16:10.529Z,14.13
2022-08-18T20:18:41.471Z,15.10
2022-08-18T20:21:13.793Z,14.50
2022-08-18T20:24:06.970Z,14.60
2022-08-18T20:26:39.140Z,14.83
2022-08-18T20:29:16.611Z,14.20
2022-08-18T20:31:49.240Z,13.97
2022-08-18T20:34:22.617Z,14.80
2022-08-18T20:36:51.588Z,14.00
2022-08-18T20:39:39.818Z,15.20
2022-08-18T20:42:35.582Z,14.83
2022-08-18T20:45:24.788Z,15.57
2022-08-18T20:48:04.844Z,15.10
2022-08-18T20:51:02.332Z,15.60
2022-08-18T20:53:49.186Z,14.00
2022-08-18T20:56:43.110Z,14.67
2022-08-18T20:59:21.309Z,15.37
2022-08-18T21:02:03.663Z,16.13
2022-08-18T21:04:49.865Z,16.07
2022-08-18T21:07:36.949Z,16.20
2022-08-18T21:10:13.487Z,16.60
2022-08-18T21:12:52.932Z,15.37
2022-08-18T21:15:35.479Z,16.13
2022-08-18T21:18:24.567Z,15.03
2022-08-18T21:20:53.995Z,17.07
2022-08-18T21:23:29.704Z,15.30
2022-08-18T21:26:06.825Z,17.07
2022-08-18T21:28:35.235Z,15.80
2022-08-18T21:31:42.543Z,16.90
2022-08-18T21:33:56.313Z,17.20
2022-08-18T21:36:25.569Z,17.47
2022-08-18T21:39:03.422Z,17.00
2022-08-18T21:41:39.308Z,17.30
2022-08-18T21:44:15.649Z,18.27
2022-08-18T21:46:44.453Z,17.20
2022-08-18T21:49:11.053Z,17.53
2022-08-18T21:51:46.518Z,17.67
2022-08-18T21:54:28.755Z,18.30
2022-08-18T21:57:18.757Z,17.80
2022-08-18T22:00:39.692Z,16.90
2022-08-18T22:03:20.718Z,17.20
2022-08-18T22:06:01.877Z,17.87
2022-08-18T22:08:32.602Z,18.60
2022-08-18T22:11:59.339Z,18.67
2022-08-18T22:14:19.619Z,17.47
2022-08-18T22:16:47.631Z,18.30
2022-08-18T22:19:20.012Z,18.70
2022-08-18T22:21:56.973Z,19.10
2022-08-18T22:24:34.981Z,18.60
2022-08-18T22:27:19.685Z,18.10
2022-08-18T22:29:50.903Z,20.03
2022-08-18T22:32:19.057Z,19.60
2022-08-18T22:34:45.504Z,20.10
2022-08-18T22:37:19.264Z,18.87
2022-08-18T22:39:52.586Z,18.20
2022-08-18T22:42:22.128Z,19.47
2022-08-18T22:44:48.928Z,19.97
2022-08-18T22:47:16.124Z,19.30
2022-08-18T22:49:43.492Z,18.70
2022-08-18T22:52:17.448Z,19.20
2022-08-18T22:54:43.851Z,18.93
2022-08-18T22:57:10.448Z,19.23
2022-08-18T22:59:37.198Z,18.40
2022-08-18T23:02:10.506Z,20.07
2022-08-18T23:04:36.987Z,19.77
2022-08-18T23:07:03.442Z,17.90
2022-08-18T23:09:33.168Z,18.80
2022-08-18T23:12:04.461Z,17.97
2022-08-18T23:14:32.456Z,18.40
2022-08-18T23:17:00.385Z,18.93
2022-08-18T23:19:28.015Z,16.77
2022-08-18T23:21:55.177Z,18.23
2022-08-18T23:24:22.219Z,18.50
2022-08-18T23:26:49.983Z,17.57
2022-08-18T23:29:18.790Z,20.27
2022-08-18T23:31:46.199Z,18.53
2022-08-18T23:34:16.450Z,19.37
2022-08-18T23:36:45.942Z,19.33
2022-08-18T23:39:14.451Z,19.73
2022-08-18T23:41:41.076Z,19.50
2022-08-18T23:44:07.589Z,18.17
2022-08-18T23:46:34.755Z,19.67
2022-08-18T23:49:03.594Z,18.37
2022-08-18T23:51:34.204Z,17.63
2022-08-18T23:54:12.642Z,18.70
2022-08-18T23:56:39.517Z,18.80
2022-08-18T23:59:07.617Z,19.50
